sensor_id;sensor_type;location;lat;lon;timestamp;pressure;altitude;pressure_sealevel;temperature;humidity
49723;BME280;43484;43.608;1.458;2023-03-03T00:00:44;100312.13;;;4.40;100.00
49723;BME280;43484;43.608;1.458;2023-03-03T00:03:22;100311.06;;;4.37;100.00
49723;BME280;43484;43.608;1.458;2023-03-03T00:05:50;100314.09;;;4.31;100.00
49723;BME280;43484;43.608;1.458;2023-03-03T00:08:19;100300.44;;;4.29;100.00
49723;BME280;43484;43.608;1.458;2023-03-03T00:10:46;100307.16;;;4.29;100.00
49723;BME280;43484;43.608;1.458;2023-03-03T00:13:18;100305.34;;;4.26;100.00
49723;BME280;43484;43.608;1.458;2023-03-03T00:15:46;100300.16;;;4.25;100.00
49723;BME280;43484;43.608;1.458;2023-03-03T00:18:30;100304.84;;;4.32;100.00
49723;BME280;43484;43.608;1.458;2023-03-03T00:21:00;100295.19;;;4.26;100.00
49723;BME280;43484;43.608;1.458;2023-03-03T00:23:38;100298.13;;;4.19;100.00
49723;BME280;43484;43.608;1.458;2023-03-03T00:26:25;100295.59;;;4.19;100.00
49723;BME280;43484;43.608;1.458;2023-03-03T00:28:52;100292.88;;;4.16;100.00
49723;BME280;43484;43.608;1.458;2023-03-03T00:33:53;100285.75;;;4.11;100.00
49723;BME280;43484;43.608;1.458;2023-03-03T00:36:29;100293.09;;;4.06;100.00
49723;BME280;43484;43.608;1.458;2023-03-03T00:39:33;100284.41;;;4.03;100.00
49723;BME280;43484;43.608;1.458;2023-03-03T00:41:57;100284.59;;;4.06;100.00
49723;BME280;43484;43.608;1.458;2023-03-03T00:47:28;100276.91;;;4.04;100.00
49723;BME280;43484;43.608;1.458;2023-03-03T00:52:38;100277.81;;;3.92;100.00
49723;BME280;43484;43.608;1.458;2023-03-03T00:55:05;100284.63;;;3.93;100.00
49723;BME280;43484;43.608;1.458;2023-03-03T00:57:33;100279.66;;;3.94;100.00
49723;BME280;43484;43.608;1.458;2023-03-03T01:00:00;100281.31;;;3.94;100.00
49723;BME280;43484;43.608;1.458;2023-03-03T01:02:26;100285.59;;;3.95;100.00
49723;BME280;43484;43.608;1.458;2023-03-03T01:04:53;100288.06;;;3.93;100.00
49723;BME280;43484;43.608;1.458;2023-03-03T01:07:22;100277.81;;;3.92;100.00
49723;BME280;43484;43.608;1.458;2023-03-03T01:09:49;100283.66;;;3.91;100.00
49723;BME280;43484;43.608;1.458;2023-03-03T01:12:16;100274.03;;;3.85;100.00
49723;BME280;43484;43.608;1.458;2023-03-03T01:14:43;100268.97;;;3.85;100.00
49723;BME280;43484;43.608;1.458;2023-03-03T01:17:11;100279.19;;;3.87;100.00
49723;BME280;43484;43.608;1.458;2023-03-03T01:19:37;100272.34;;;3.85;100.00
49723;BME280;43484;43.608;1.458;2023-03-03T01:22:04;100272.88;;;3.80;100.00
49723;BME280;43484;43.608;1.458;2023-03-03T01:24:30;100269.94;;;3.74;100.00
49723;BME280;43484;43.608;1.458;2023-03-03T01:26:57;100264.69;;;3.71;100.00
49723;BME280;43484;43.608;1.458;2023-03-03T01:29:23;100257.75;;;3.68;100.00
49723;BME280;43484;43.608;1.458;2023-03-03T01:31:50;100260.28;;;3.68;100.00
49723;BME280;43484;43.608;1.458;2023-03-03T01:34:17;100256.72;;;3.65;100.00
49723;BME280;43484;43.608;1.458;2023-03-03T01:36:44;100250.66;;;3.63;100.00
49723;BME280;43484;43.608;1.458;2023-03-03T01:39:11;100250.56;;;3.61;100.00
49723;BME280;43484;43.608;1.458;2023-03-03T01:41:37;100249.78;;;3.62;100.00
49723;BME280;43484;43.608;1.458;2023-03-03T01:44:04;100242.09;;;3.61;100.00
49723;BME280;43484;43.608;1.458;2023-03-03T01:47:04;100241.31;;;3.62;100.00
49723;BME280;43484;43.608;1.458;2023-03-03T01:52:21;100236.13;;;3.60;100.00
49723;BME280;43484;43.608;1.458;2023-03-03T01:54:54;100226.00;;;3.60;100.00
49723;BME280;43484;43.608;1.458;2023-03-03T01:57:27;100229.44;;;3.61;100.00
49723;BME280;43484;43.608;1.458;2023-03-03T01:59:56;100230.09;;;3.58;100.00
49723;BME280;43484;43.608;1.458;2023-03-03T02:02:26;100222.91;;;3.64;100.00
49723;BME280;43484;43.608;1.458;2023-03-03T02:04:53;100227.09;;;3.64;100.00
49723;BME280;43484;43.608;1.458;2023-03-03T02:07:21;100229.78;;;3.67;100.00
49723;BME280;43484;43.608;1.458;2023-03-03T02:10:04;100214.81;;;3.70;100.00
49723;BME280;43484;43.608;1.458;2023-03-03T02:12:35;100211.22;;;3.66;100.00
49723;BME280;43484;43.608;1.458;2023-03-03T02:15:25;100212.16;;;3.68;100.00
49723;BME280;43484;43.608;1.458;2023-03-03T02:17:56;100203.31;;;3.75;100.00
49723;BME280;43484;43.608;1.458;2023-03-03T02:23:18;100209.53;;;3.80;100.00
49723;BME280;43484;43.608;1.458;2023-03-03T02:28:30;100198.50;;;3.79;100.00
49723;BME280;43484;43.608;1.458;2023-03-03T02:30:59;100198.69;;;3.82;100.00
49723;BME280;43484;43.608;1.458;2023-03-03T02:33:27;100197.91;;;3.83;100.00
49723;BME280;43484;43.608;1.458;2023-03-03T02:35:54;100199.66;;;3.84;100.00
49723;BME280;43484;43.608;1.458;2023-03-03T02:43:45;100201.50;;;3.87;100.00
49723;BME280;43484;43.608;1.458;2023-03-03T02:46:12;100200.56;;;3.85;100.00
49723;BME280;43484;43.608;1.458;2023-03-03T02:48:39;100195.75;;;3.90;100.00
49723;BME280;43484;43.608;1.458;2023-03-03T02:51:05;100200.03;;;3.91;100.00
49723;BME280;43484;43.608;1.458;2023-03-03T02:53:32;100194.78;;;3.88;100.00
49723;BME280;43484;43.608;1.458;2023-03-03T02:55:58;100193.31;;;3.91;100.00
49723;BME280;43484;43.608;1.458;2023-03-03T02:58:25;100193.91;;;3.87;100.00
49723;BME280;43484;43.608;1.458;2023-03-03T03:00:52;100184.91;;;3.92;100.00
49723;BME280;43484;43.608;1.458;2023-03-03T03:03:22;100196.91;;;3.95;100.00
49723;BME280;43484;43.608;1.458;2023-03-03T03:05:48;100190.69;;;3.90;100.00
49723;BME280;43484;43.608;1.458;2023-03-03T03:08:15;100190.88;;;3.93;100.00
49723;BME280;43484;43.608;1.458;2023-03-03T03:10:42;100197.69;;;3.94;100.00
49723;BME280;43484;43.608;1.458;2023-03-03T03:13:08;100197.81;;;3.95;100.00
49723;BME280;43484;43.608;1.458;2023-03-03T03:15:35;100206.56;;;4.00;100.00
49723;BME280;43484;43.608;1.458;2023-03-03T03:18:02;100209.13;;;4.15;100.00
49723;BME280;43484;43.608;1.458;2023-03-03T03:20:28;100199.41;;;4.08;100.00
49723;BME280;43484;43.608;1.458;2023-03-03T03:22:55;100210.91;;;4.03;100.00
49723;BME280;43484;43.608;1.458;2023-03-03T03:25:22;100217.16;;;4.08;100.00
49723;BME280;43484;43.608;1.458;2023-03-03T03:27:49;100214.25;;;4.02;100.00
49723;BME280;43484;43.608;1.458;2023-03-03T03:30:15;100213.44;;;4.03;100.00
49723;BME280;43484;43.608;1.458;2023-03-03T03:32:42;100217.53;;;4.01;100.00
49723;BME280;43484;43.608;1.458;2023-03-03T03:35:09;100215.72;;;3.98;100.00
49723;BME280;43484;43.608;1.458;2023-03-03T03:37:36;100217.38;;;3.98;100.00
49723;BME280;43484;43.608;1.458;2023-03-03T03:40:04;100217.09;;;3.93;100.00
49723;BME280;43484;43.608;1.458;2023-03-03T03:42:31;100214.47;;;3.92;100.00
49723;BME280;43484;43.608;1.458;2023-03-03T03:44:58;100219.72;;;3.95;100.00
49723;BME280;43484;43.608;1.458;2023-03-03T03:47:25;100226.44;;;3.94;100.00
49723;BME280;43484;43.608;1.458;2023-03-03T03:49:51;100218.84;;;3.94;100.00
49723;BME280;43484;43.608;1.458;2023-03-03T03:52:18;100223.00;;;3.94;100.00
49723;BME280;43484;43.608;1.458;2023-03-03T03:54:44;100216.78;;;3.88;100.00
49723;BME280;43484;43.608;1.458;2023-03-03T03:57:11;100217.00;;;3.92;100.00
49723;BME280;43484;43.608;1.458;2023-03-03T03:59:38;100223.53;;;3.88;100.00
49723;BME280;43484;43.608;1.458;2023-03-03T04:02:04;100225.19;;;3.88;100.00
49723;BME280;43484;43.608;1.458;2023-03-03T04:04:31;100223.72;;;3.91;100.00
49723;BME280;43484;43.608;1.458;2023-03-03T04:06:57;100226.44;;;3.94;100.00
49723;BME280;43484;43.608;1.458;2023-03-03T04:09:25;100228.31;;;3.97;100.00
49723;BME280;43484;43.608;1.458;2023-03-03T04:11:53;100230.31;;;4.02;100.00
49723;BME280;43484;43.608;1.458;2023-03-03T04:14:20;100232.00;;;4.02;100.00
49723;BME280;43484;43.608;1.458;2023-03-03T04:16:46;100237.72;;;3.99;100.00
49723;BME280;43484;43.608;1.458;2023-03-03T04:19:13;100238.72;;;4.01;100.00
49723;BME280;43484;43.608;1.458;2023-03-03T04:21:40;100235.28;;;4.01;100.00
49723;BME280;43484;43.608;1.458;2023-03-03T04:24:06;100233.72;;;4.03;100.00
49723;BME280;43484;43.608;1.458;2023-03-03T04:26:33;100240.28;;;3.99;100.00
49723;BME280;43484;43.608;1.458;2023-03-03T04:29:00;100230.13;;;3.99;100.00
49723;BME280;43484;43.608;1.458;2023-03-03T04:31:27;100232.06;;;4.03;100.00
49723;BME280;43484;43.608;1.458;2023-03-03T04:33:53;100236.34;;;4.04;100.00
49723;BME280;43484;43.608;1.458;2023-03-03T04:36:20;100238.97;;;4.06;100.00
49723;BME280;43484;43.608;1.458;2023-03-03T04:38:47;100240.44;;;4.02;100.00
49723;BME280;43484;43.608;1.458;2023-03-03T04:41:14;100242.13;;;4.02;100.00
49723;BME280;43484;43.608;1.458;2023-03-03T04:43:41;100242.97;;;4.02;100.00
49723;BME280;43484;43.608;1.458;2023-03-03T04:46:08;100244.66;;;4.02;100.00
49723;BME280;43484;43.608;1.458;2023-03-03T04:48:34;100241.34;;;4.03;100.00
49723;BME280;43484;43.608;1.458;2023-03-03T04:51:01;100244.13;;;4.07;100.00
49723;BME280;43484;43.608;1.458;2023-03-03T04:53:28;100245.50;;;4.02;100.00
49723;BME280;43484;43.608;1.458;2023-03-03T04:55:55;100245.44;;;4.01;100.00
49723;BME280;43484;43.608;1.458;2023-03-03T04:58:22;100242.97;;;4.02;100.00
49723;BME280;43484;43.608;1.458;2023-03-03T05:00:57;100248.34;;;4.07;100.00
49723;BME280;43484;43.608;1.458;2023-03-03T05:03:24;100250.69;;;4.04;100.00
49723;BME280;43484;43.608;1.458;2023-03-03T05:05:52;100251.47;;;4.03;100.00
49723;BME280;43484;43.608;1.458;2023-03-03T05:08:18;100249.72;;;4.02;100.00
49723;BME280;43484;43.608;1.458;2023-03-03T05:10:45;100247.97;;;4.01;100.00
49723;BME280;43484;43.608;1.458;2023-03-03T05:13:12;100242.97;;;4.02;100.00
49723;BME280;43484;43.608;1.458;2023-03-03T05:15:40;100255.06;;;4.06;100.00
49723;BME280;43484;43.608;1.458;2023-03-03T05:18:08;100249.81;;;4.03;100.00
49723;BME280;43484;43.608;1.458;2023-03-03T05:20:35;100250.69;;;4.04;100.00
49723;BME280;43484;43.608;1.458;2023-03-03T05:23:04;100250.59;;;4.02;100.00
49723;BME280;43484;43.608;1.458;2023-03-03T05:25:32;100249.91;;;4.05;100.00
49723;BME280;43484;43.608;1.458;2023-03-03T05:27:58;100250.78;;;4.05;100.00
49723;BME280;43484;43.608;1.458;2023-03-03T05:30:25;100255.06;;;4.06;100.00
49723;BME280;43484;43.608;1.458;2023-03-03T05:32:51;100255.97;;;4.07;100.00
49723;BME280;43484;43.608;1.458;2023-03-03T05:35:18;100250.97;;;4.08;100.00
49723;BME280;43484;43.608;1.458;2023-03-03T05:37:46;100253.50;;;4.08;100.00
49723;BME280;43484;43.608;1.458;2023-03-03T05:40:15;100258.69;;;4.10;100.00
49723;BME280;43484;43.608;1.458;2023-03-03T05:42:41;100257.53;;;4.05;100.00
49723;BME280;43484;43.608;1.458;2023-03-03T05:45:08;100257.53;;;4.05;100.00
49723;BME280;43484;43.608;1.458;2023-03-03T05:47:37;100266.00;;;4.05;100.00
49723;BME280;43484;43.608;1.458;2023-03-03T05:50:04;100260.94;;;4.05;100.00
49723;BME280;43484;43.608;1.458;2023-03-03T05:52:31;100261.78;;;4.06;100.00
49723;BME280;43484;43.608;1.458;2023-03-03T05:54:58;100266.09;;;4.07;100.00
49723;BME280;43484;43.608;1.458;2023-03-03T05:57:24;100260.41;;;4.11;100.00
49723;BME280;43484;43.608;1.458;2023-03-03T05:59:51;100260.22;;;4.08;100.00
49723;BME280;43484;43.608;1.458;2023-03-03T06:02:18;100261.97;;;4.09;100.00
49723;BME280;43484;43.608;1.458;2023-03-03T06:04:44;100258.06;;;4.14;100.00
49723;BME280;43484;43.608;1.458;2023-03-03T06:07:11;100258.75;;;4.11;100.00
49723;BME280;43484;43.608;1.458;2023-03-03T06:09:37;100261.03;;;4.07;100.00
49723;BME280;43484;43.608;1.458;2023-03-03T06:12:04;100264.31;;;4.06;100.00
49723;BME280;43484;43.608;1.458;2023-03-03T06:14:32;100266.28;;;4.10;100.00
49723;BME280;43484;43.608;1.458;2023-03-03T06:16:58;100265.56;;;4.12;100.00
49723;BME280;43484;43.608;1.458;2023-03-03T06:19:25;100267.34;;;4.13;100.00
49723;BME280;43484;43.608;1.458;2023-03-03T06:21:52;100271.53;;;4.13;100.00
49723;BME280;43484;43.608;1.458;2023-03-03T06:24:18;100271.53;;;4.13;100.00
49723;BME280;43484;43.608;1.458;2023-03-03T06:26:45;100267.94;;;4.09;100.00
49723;BME280;43484;43.608;1.458;2023-03-03T06:29:12;100272.03;;;4.07;100.00
49723;BME280;43484;43.608;1.458;2023-03-03T06:31:41;100274.88;;;4.12;100.00
49723;BME280;43484;43.608;1.458;2023-03-03T06:34:09;100278.16;;;4.11;100.00
49723;BME280;43484;43.608;1.458;2023-03-03T06:36:35;100279.84;;;4.10;100.00
49723;BME280;43484;43.608;1.458;2023-03-03T06:39:02;100287.31;;;4.09;100.00
49723;BME280;43484;43.608;1.458;2023-03-03T06:41:29;100289.00;;;4.08;100.00
49723;BME280;43484;43.608;1.458;2023-03-03T06:43:56;100284.13;;;4.11;100.00
49723;BME280;43484;43.608;1.458;2023-03-03T06:46:23;100282.38;;;4.10;100.00
49723;BME280;43484;43.608;1.458;2023-03-03T06:48:50;100281.56;;;4.11;100.00
49723;BME280;43484;43.608;1.458;2023-03-03T06:53:43;100281.09;;;4.17;100.00
49723;BME280;43484;43.608;1.458;2023-03-03T06:56:10;100291.22;;;4.17;100.00
49723;BME280;43484;43.608;1.458;2023-03-03T06:58:36;100293.53;;;4.14;100.00
49723;BME280;43484;43.608;1.458;2023-03-03T07:01:15;100293.47;;;4.12;100.00
49723;BME280;43484;43.608;1.458;2023-03-03T07:03:42;100289.38;;;4.14;100.00
49723;BME280;43484;43.608;1.458;2023-03-03T07:06:25;100293.66;;;4.15;100.00
49723;BME280;43484;43.608;1.458;2023-03-03T07:08:54;100293.06;;;4.19;100.00
49723;BME280;43484;43.608;1.458;2023-03-03T07:11:23;100293.47;;;4.25;100.00
49723;BME280;43484;43.608;1.458;2023-03-03T07:13:51;100300.34;;;4.28;100.00
49723;BME280;43484;43.608;1.458;2023-03-03T07:16:23;100295.19;;;4.26;100.00
49723;BME280;43484;43.608;1.458;2023-03-03T07:23:45;100307.75;;;4.38;100.00
49723;BME280;43484;43.608;1.458;2023-03-03T07:26:19;100313.88;;;4.41;100.00
49723;BME280;43484;43.608;1.458;2023-03-03T07:33:53;100330.34;;;4.48;100.00
49723;BME280;43484;43.608;1.458;2023-03-03T07:36:26;100331.31;;;4.50;100.00
49723;BME280;43484;43.608;1.458;2023-03-03T07:38:55;100337.91;;;4.61;100.00
49723;BME280;43484;43.608;1.458;2023-03-03T07:41:22;100340.00;;;4.53;100.00
49723;BME280;43484;43.608;1.458;2023-03-03T07:46:39;100346.31;;;4.60;100.00
49723;BME280;43484;43.608;1.458;2023-03-03T07:51:57;100342.38;;;4.65;100.00
49723;BME280;43484;43.608;1.458;2023-03-03T07:54:38;100357.78;;;4.68;100.00
49723;BME280;43484;43.608;1.458;2023-03-03T07:59:36;100350.66;;;4.75;100.00
49723;BME280;43484;43.608;1.458;2023-03-03T08:02:08;100349.06;;;4.77;100.00
49723;BME280;43484;43.608;1.458;2023-03-03T08:04:46;100348.56;;;4.83;100.00
49723;BME280;43484;43.608;1.458;2023-03-03T08:07:19;100351.38;;;4.87;100.00
49723;BME280;43484;43.608;1.458;2023-03-03T08:15:20;100347.19;;;4.88;100.00
49723;BME280;43484;43.608;1.458;2023-03-03T08:17:48;100347.91;;;5.00;100.00
49723;BME280;43484;43.608;1.458;2023-03-03T08:22:59;100351.59;;;5.05;100.00
49723;BME280;43484;43.608;1.458;2023-03-03T08:25:26;100353.41;;;5.07;100.00
49723;BME280;43484;43.608;1.458;2023-03-03T08:27:53;100352.03;;;5.12;100.00
49723;BME280;43484;43.608;1.458;2023-03-03T08:30:19;100355.91;;;5.21;100.00
49723;BME280;43484;43.608;1.458;2023-03-03T08:32:46;100357.41;;;5.17;100.00
49723;BME280;43484;43.608;1.458;2023-03-03T08:35:12;100366.41;;;5.27;100.00
49723;BME280;43484;43.608;1.458;2023-03-03T08:37:39;100360.75;;;5.31;100.00
49723;BME280;43484;43.608;1.458;2023-03-03T08:40:06;100377.72;;;5.32;100.00
49723;BME280;43484;43.608;1.458;2023-03-03T08:42:33;100381.03;;;5.16;100.00
49723;BME280;43484;43.608;1.458;2023-03-03T08:45:00;100379.44;;;5.18;100.00
49723;BME280;43484;43.608;1.458;2023-03-03T08:47:26;100378.78;;;5.35;100.00
49723;BME280;43484;43.608;1.458;2023-03-03T08:49:53;100377.22;;;5.52;100.00
49723;BME280;43484;43.608;1.458;2023-03-03T08:52:19;100384.84;;;5.37;100.00
49723;BME280;43484;43.608;1.458;2023-03-03T08:54:46;100380.63;;;5.52;100.00
49723;BME280;43484;43.608;1.458;2023-03-03T08:57:13;100376.53;;;5.69;100.00
49723;BME280;43484;43.608;1.458;2023-03-03T08:59:43;100382.41;;;5.82;100.00
49723;BME280;43484;43.608;1.458;2023-03-03T09:02:10;100385.47;;;5.62;100.00
49723;BME280;43484;43.608;1.458;2023-03-03T09:04:37;100384.66;;;5.63;100.00
49723;BME280;43484;43.608;1.458;2023-03-03T09:07:04;100382.81;;;5.75;100.00
49723;BME280;43484;43.608;1.458;2023-03-03T09:09:30;100389.94;;;5.81;100.00
49723;BME280;43484;43.608;1.458;2023-03-03T09:11:58;100395.00;;;5.81;100.00
49723;BME280;43484;43.608;1.458;2023-03-03T09:14:28;100388.25;;;6.10;100.00
49723;BME280;43484;43.608;1.458;2023-03-03T09:16:55;100382.72;;;6.17;100.00
49723;BME280;43484;43.608;1.458;2023-03-03T09:19:26;100389.13;;;5.96;100.00
49723;BME280;43484;43.608;1.458;2023-03-03T09:21:55;100391.06;;;6.00;100.00
49723;BME280;43484;43.608;1.458;2023-03-03T09:24:30;100384.41;;;6.02;100.00
49723;BME280;43484;43.608;1.458;2023-03-03T09:26:57;100389.16;;;6.27;100.00
49723;BME280;43484;43.608;1.458;2023-03-03T09:29:26;100383.91;;;6.24;100.00
49723;BME280;43484;43.608;1.458;2023-03-03T09:31:59;100387.59;;;6.29;100.00
49723;BME280;43484;43.608;1.458;2023-03-03T09:34:37;100389.19;;;6.43;100.00
49723;BME280;43484;43.608;1.458;2023-03-03T09:37:29;100384.00;;;6.56;100.00
49723;BME280;43484;43.608;1.458;2023-03-03T09:39:59;100375.78;;;6.46;100.00
49723;BME280;43484;43.608;1.458;2023-03-03T09:48:09;100380.94;;;6.31;100.00
49723;BME280;43484;43.608;1.458;2023-03-03T09:56:01;100382.06;;;6.52;100.00
49723;BME280;43484;43.608;1.458;2023-03-03T10:01:49;100383.09;;;6.40;100.00
49723;BME280;43484;43.608;1.458;2023-03-03T10:04:57;100385.34;;;6.66;100.00
49723;BME280;43484;43.608;1.458;2023-03-03T10:08:08;100384.00;;;6.56;100.00
49723;BME280;43484;43.608;1.458;2023-03-03T10:10:55;100387.19;;;6.68;100.00
49723;BME280;43484;43.608;1.458;2023-03-03T10:27:20;100383.94;;;6.87;100.00
49723;BME280;43484;43.608;1.458;2023-03-03T10:38:34;100391.03;;;6.92;100.00
49723;BME280;43484;43.608;1.458;2023-03-03T10:41:16;100394.75;;;6.99;100.00
49723;BME280;43484;43.608;1.458;2023-03-03T10:49:45;100384.34;;;7.10;100.00
49723;BME280;43484;43.608;1.458;2023-03-03T10:52:30;100384.41;;;7.28;100.00
49723;BME280;43484;43.608;1.458;2023-03-03T10:58:00;100385.03;;;7.40;100.00
49723;BME280;43484;43.608;1.458;2023-03-03T11:06:17;100370.56;;;7.07;100.00
49723;BME280;43484;43.608;1.458;2023-03-03T11:24:53;100360.25;;;8.06;100.00
49723;BME280;43484;43.608;1.458;2023-03-03T11:30:27;100368.03;;;8.25;100.00
49723;BME280;43484;43.608;1.458;2023-03-03T11:33:02;100359.09;;;8.17;100.00
49723;BME280;43484;43.608;1.458;2023-03-03T11:35:54;100354.78;;;8.16;100.00
49723;BME280;43484;43.608;1.458;2023-03-03T11:38:56;100358.75;;;8.27;100.00
49723;BME280;43484;43.608;1.458;2023-03-03T11:41:31;100355.44;;;8.12;100.00
49723;BME280;43484;43.608;1.458;2023-03-03T11:44:08;100354.22;;;8.04;100.00
49723;BME280;43484;43.608;1.458;2023-03-03T11:49:19;100357.13;;;7.94;100.00
49723;BME280;43484;43.608;1.458;2023-03-03T11:54:26;100344.88;;;8.05;100.00
49723;BME280;43484;43.608;1.458;2023-03-03T12:00:03;100344.66;;;7.65;100.00
49723;BME280;43484;43.608;1.458;2023-03-03T12:02:52;100340.78;;;7.55;100.00
49723;BME280;43484;43.608;1.458;2023-03-03T12:10:57;100329.69;;;7.89;100.00
49723;BME280;43484;43.608;1.458;2023-03-03T12:13:52;100323.25;;;7.79;100.00
49723;BME280;43484;43.608;1.458;2023-03-03T12:16:33;100326.31;;;7.90;100.00
49723;BME280;43484;43.608;1.458;2023-03-03T12:24:17;100317.78;;;8.07;100.00
49723;BME280;43484;43.608;1.458;2023-03-03T12:32:31;100318.84;;;8.29;100.00
49723;BME280;43484;43.608;1.458;2023-03-03T12:38:08;100311.19;;;8.85;100.00
49723;BME280;43484;43.608;1.458;2023-03-03T12:40:35;100311.09;;;9.03;100.00
49723;BME280;43484;43.608;1.458;2023-03-03T12:43:28;100303.09;;;8.76;100.00
49723;BME280;43484;43.608;1.458;2023-03-03T12:46:19;100306.53;;;8.57;100.00
49723;BME280;43484;43.608;1.458;2023-03-03T12:48:54;100296.03;;;8.32;100.00
49723;BME280;43484;43.608;1.458;2023-03-03T12:51:49;100294.47;;;8.36;100.00
49723;BME280;43484;43.608;1.458;2023-03-03T12:57:48;100294.53;;;8.74;100.00
49723;BME280;43484;43.608;1.458;2023-03-03T13:00:41;100296.69;;;8.84;100.00
49723;BME280;43484;43.608;1.458;2023-03-03T13:05:55;100285.38;;;8.79;100.00
49723;BME280;43484;43.608;1.458;2023-03-03T13:11:34;100279.03;;;8.33;100.00
49723;BME280;43484;43.608;1.458;2023-03-03T13:16:43;100275.97;;;8.59;100.00
49723;BME280;43484;43.608;1.458;2023-03-03T13:19:20;100279.53;;;8.81;100.00
49723;BME280;43484;43.608;1.458;2023-03-03T13:24:53;100280.72;;;8.51;100.00
49723;BME280;43484;43.608;1.458;2023-03-03T13:27:24;100279.41;;;8.40;100.00
49723;BME280;43484;43.608;1.458;2023-03-03T13:30:16;100282.16;;;8.45;100.00
49723;BME280;43484;43.608;1.458;2023-03-03T13:35:49;100284.72;;;8.64;100.00
49723;BME280;43484;43.608;1.458;2023-03-03T13:38:22;100277.56;;;8.76;100.00
49723;BME280;43484;43.608;1.458;2023-03-03T13:41:03;100279.28;;;8.96;100.00
49723;BME280;43484;43.608;1.458;2023-03-03T13:44:01;100277.75;;;9.00;100.00
49723;BME280;43484;43.608;1.458;2023-03-03T13:46:39;100273.03;;;8.69;100.00
49723;BME280;43484;43.608;1.458;2023-03-03T13:57:39;100272.88;;;8.66;100.00
49723;BME280;43484;43.608;1.458;2023-03-03T14:00:25;100276.06;;;9.00;100.00
49723;BME280;43484;43.608;1.458;2023-03-03T14:11:39;100272.22;;;9.10;100.00
49723;BME280;43484;43.608;1.458;2023-03-03T14:19:24;100260.09;;;8.85;100.00
49723;BME280;43484;43.608;1.458;2023-03-03T14:27:33;100247.84;;;8.97;100.00
49723;BME280;43484;43.608;1.458;2023-03-03T14:35:47;100255.69;;;9.43;100.00
49723;BME280;43484;43.608;1.458;2023-03-03T14:38:21;100252.41;;;9.04;100.00
49723;BME280;43484;43.608;1.458;2023-03-03T14:41:33;100253.00;;;8.99;100.00
49723;BME280;43484;43.608;1.458;2023-03-03T14:44:00;100257.84;;;8.93;100.00
49723;BME280;43484;43.608;1.458;2023-03-03T14:48:59;100258.16;;;8.60;100.00
49723;BME280;43484;43.608;1.458;2023-03-03T14:51:43;100260.03;;;8.83;100.00
49723;BME280;43484;43.608;1.458;2023-03-03T14:54:24;100264.06;;;8.78;100.00
49723;BME280;43484;43.608;1.458;2023-03-03T14:57:00;100268.56;;;8.84;100.00
49723;BME280;43484;43.608;1.458;2023-03-03T14:59:29;100261.31;;;8.74;100.00
49723;BME280;43484;43.608;1.458;2023-03-03T15:04:46;100258.69;;;8.72;100.00
49723;BME280;43484;43.608;1.458;2023-03-03T15:07:26;100255.28;;;8.93;100.00
49723;BME280;43484;43.608;1.458;2023-03-03T15:09:56;100257.78;;;8.91;100.00
49723;BME280;43484;43.608;1.458;2023-03-03T15:22:57;100264.13;;;8.99;100.00
49723;BME280;43484;43.608;1.458;2023-03-03T15:25:38;100257.88;;;9.13;100.00
49723;BME280;43484;43.608;1.458;2023-03-03T15:36:54;100268.09;;;8.73;100.00
49723;BME280;43484;43.608;1.458;2023-03-03T15:42:04;100275.72;;;8.93;100.00
49723;BME280;43484;43.608;1.458;2023-03-03T15:58:43;100266.75;;;8.62;100.00
49723;BME280;43484;43.608;1.458;2023-03-03T16:03:58;100262.59;;;8.83;100.00
49723;BME280;43484;43.608;1.458;2023-03-03T16:11:48;100263.28;;;8.60;100.00
49723;BME280;43484;43.608;1.458;2023-03-03T16:17:23;100268.97;;;8.55;100.00
49723;BME280;43484;43.608;1.458;2023-03-03T16:23:21;100266.75;;;8.43;100.00
49723;BME280;43484;43.608;1.458;2023-03-03T16:28:49;100261.72;;;8.64;100.00
49723;BME280;43484;43.608;1.458;2023-03-03T16:31:24;100265.00;;;8.61;100.00
49723;BME280;43484;43.608;1.458;2023-03-03T16:34:05;100264.84;;;8.77;100.00
49723;BME280;43484;43.608;1.458;2023-03-03T16:42:28;100273.72;;;8.47;100.00
49723;BME280;43484;43.608;1.458;2023-03-03T16:55:57;100276.22;;;8.27;100.00
49723;BME280;43484;43.608;1.458;2023-03-03T17:04:02;100285.72;;;8.48;100.00
49723;BME280;43484;43.608;1.458;2023-03-03T17:06:49;100295.63;;;8.42;100.00
49723;BME280;43484;43.608;1.458;2023-03-03T17:25:45;100307.28;;;8.01;100.00
49723;BME280;43484;43.608;1.458;2023-03-03T17:31:16;100309.16;;;7.87;100.00
49723;BME280;43484;43.608;1.458;2023-03-03T17:39:50;100321.13;;;7.71;100.00
49723;BME280;43484;43.608;1.458;2023-03-03T17:45:11;100334.88;;;7.56;100.00
49723;BME280;43484;43.608;1.458;2023-03-03T17:56:15;100346.00;;;7.41;100.00
49723;BME280;43484;43.608;1.458;2023-03-03T18:19:17;100371.19;;;7.19;100.00
49723;BME280;43484;43.608;1.458;2023-03-03T18:30:24;100366.56;;;7.12;100.00
49723;BME280;43484;43.608;1.458;2023-03-03T18:35:36;100375.19;;;6.98;100.00
49723;BME280;43484;43.608;1.458;2023-03-03T18:51:46;100388.09;;;6.85;100.00
49723;BME280;43484;43.608;1.458;2023-03-03T19:12:51;100399.22;;;6.71;100.00
49723;BME280;43484;43.608;1.458;2023-03-03T19:18:04;100402.13;;;6.62;100.00
49723;BME280;43484;43.608;1.458;2023-03-03T19:20:46;100407.97;;;6.60;100.00
49723;BME280;43484;43.608;1.458;2023-03-03T19:23:20;100406.72;;;6.53;100.00
49723;BME280;43484;43.608;1.458;2023-03-03T19:31:46;100419.03;;;6.46;100.00
49723;BME280;43484;43.608;1.458;2023-03-03T19:37:07;100420.69;;;6.45;100.00
49723;BME280;43484;43.608;1.458;2023-03-03T19:40:06;100420.47;;;6.41;100.00
49723;BME280;43484;43.608;1.458;2023-03-03T19:42:49;100416.94;;;6.38;100.00
49723;BME280;43484;43.608;1.458;2023-03-03T19:45:33;100433.19;;;6.41;100.00